Time;durP1;ratioP1;P1;durP2;ratioP2;P2;SDS_P1;SDS_P2;PMS_P1;PMS_P2;Temp;Humidity;BMP_temperature;BMP_pressure;BME280_temperature;BME280_humidity;BME280_pressure;Samples;Min_cycle;Max_cycle;Signal;HPM_P1;HPM_P2
2022/08/05 00:00:04;;;;;;;4.57;2.42;;;18.50;99.90;;;;;;5035349;28;20041;-72
2022/08/05 00:02:30;;;;;;;5.90;2.63;;;18.50;99.90;;;;;;5018689;28;20506;-71
2022/08/05 00:04:55;;;;;;;5.13;2.58;;;18.50;99.90;;;;;;5035326;28;20187;-72
2022/08/05 00:07:22;;;;;;;3.30;2.30;;;18.40;99.90;;;;;;5017797;28;20046;-71
2022/08/05 00:09:47;;;;;;;4.60;2.58;;;18.40;99.90;;;;;;5018386;28;20057;-72
2022/08/05 00:12:13;;;;;;;3.10;2.58;;;18.40;99.90;;;;;;5035489;28;20344;-72
2022/08/05 00:14:39;;;;;;;4.63;2.65;;;18.30;99.90;;;;;;5034750;28;20045;-71
2022/08/05 00:17:04;;;;;;;4.25;2.80;;;18.30;99.90;;;;;;5017569;28;20046;-72
2022/08/05 00:19:30;;;;;;;4.78;2.60;;;18.30;99.90;;;;;;5017590;28;20046;-71
2022/08/05 00:21:56;;;;;;;5.90;2.67;;;18.30;99.90;;;;;;5034950;28;20046;-71
2022/08/05 00:24:22;;;;;;;5.57;2.58;;;18.30;99.90;;;;;;5017228;28;20084;-72
2022/08/05 00:26:48;;;;;;;3.70;2.50;;;18.30;99.90;;;;;;5017226;28;20093;-72
2022/08/05 00:29:13;;;;;;;4.18;2.80;;;18.20;99.90;;;;;;5034715;28;20057;-71
2022/08/05 00:31:39;;;;;;;4.80;2.90;;;18.20;99.90;;;;;;5034793;28;20041;-72
2022/08/05 00:34:05;;;;;;;9.73;3.10;;;18.20;99.90;;;;;;5034756;28;20137;-71
2022/08/05 00:36:30;;;;;;;4.00;3.08;;;18.20;99.90;;;;;;5016928;28;20064;-72
2022/08/05 00:38:56;;;;;;;4.97;3.00;;;18.10;99.90;;;;;;5034600;28;20067;-71
2022/08/05 00:41:33;;;;;;;6.35;3.25;;;18.10;99.90;;;;;;5035116;28;20041;-71
2022/08/05 00:43:59;;;;;;;5.10;2.92;;;18.10;99.90;;;;;;5016849;28;20042;-71
2022/08/05 00:46:25;;;;;;;4.05;2.83;;;18.10;99.90;;;;;;5034456;28;20041;-72
2022/08/05 00:48:51;;;;;;;7.35;3.22;;;18.10;99.90;;;;;;5017075;28;20049;-71
2022/08/05 00:51:19;;;;;;;5.35;3.50;;;18.10;99.90;;;;;;5016986;28;20148;-72
2022/08/05 00:53:45;;;;;;;4.65;3.30;;;18.20;99.90;;;;;;5017752;28;20061;-72
2022/08/05 00:56:11;;;;;;;5.20;3.22;;;18.10;99.90;;;;;;5034259;28;20061;-72
2022/08/05 00:58:37;;;;;;;5.20;3.25;;;18.20;99.90;;;;;;5034722;28;20107;-71
2022/08/05 01:01:03;;;;;;;6.05;3.20;;;18.20;99.90;;;;;;5000410;28;20057;-72
2022/08/05 01:03:29;;;;;;;4.78;2.80;;;18.20;99.90;;;;;;5034219;28;20045;-72
2022/08/05 01:05:55;;;;;;;5.05;3.22;;;18.10;99.90;;;;;;5034142;28;20048;-72
2022/08/05 01:08:21;;;;;;;5.63;2.95;;;18.10;99.90;;;;;;5034059;28;20081;-71
2022/08/05 01:11:13;;;;;;;7.43;3.28;;;18.10;99.90;;;;;;5016885;28;20084;-71
2022/08/05 01:14:05;;;;;;;4.60;3.00;;;18.10;99.90;;;;;;5016873;28;20053;-72
2022/08/05 01:16:40;;;;;;;5.32;3.40;;;18.30;99.90;;;;;;5023403;28;20067;-72
2022/08/05 01:19:31;;;;;;;4.20;2.80;;;18.30;99.90;;;;;;5033927;28;20091;-72
2022/08/05 01:22:22;;;;;;;4.10;2.75;;;18.30;99.90;;;;;;4982872;28;20053;-72
2022/08/05 01:25:06;;;;;;;3.72;2.88;;;18.20;99.90;;;;;;5034051;28;20049;-72
2022/08/05 01:27:59;;;;;;;5.82;2.88;;;18.30;99.90;;;;;;5034741;28;20105;-71
2022/08/05 01:30:27;;;;;;;4.05;3.00;;;18.30;99.90;;;;;;5033702;28;20060;-72
2022/08/05 01:32:55;;;;;;;5.13;3.22;;;18.30;99.90;;;;;;5033410;28;20513;-72
2022/08/05 01:35:25;;;;;;;6.13;3.47;;;18.40;99.90;;;;;;5033701;28;20482;-72
2022/08/05 01:37:55;;;;;;;4.07;2.92;;;18.40;99.90;;;;;;5016010;28;20482;-72
2022/08/05 01:40:25;;;;;;;4.90;2.75;;;18.40;99.90;;;;;;5033721;28;20127;-72
2022/08/05 01:42:52;;;;;;;4.57;3.10;;;18.40;99.90;;;;;;5015911;28;20045;-72
2022/08/05 01:45:19;;;;;;;4.78;3.22;;;18.40;99.90;;;;;;5033604;28;20176;-72
2022/08/05 01:47:46;;;;;;;4.97;3.38;;;18.40;99.90;;;;;;5034291;28;20179;-71
2022/08/05 01:50:31;;;;;;;4.75;2.88;;;18.30;99.90;;;;;;5016018;28;20409;-72
2022/08/05 01:53:03;;;;;;;5.03;3.17;;;18.30;99.90;;;;;;5033426;28;20042;-72
2022/08/05 01:55:32;;;;;;;4.68;3.03;;;18.30;99.90;;;;;;5033454;28;20128;-72
2022/08/05 01:58:00;;;;;;;5.85;3.40;;;18.30;99.90;;;;;;5016164;28;20124;-72
2022/08/05 02:00:27;;;;;;;6.30;3.17;;;18.30;99.90;;;;;;5033242;28;20085;-71
2022/08/05 02:03:24;;;;;;;6.13;3.10;;;18.30;99.90;;;;;;5016585;28;20049;-72
2022/08/05 02:05:52;;;;;;;4.93;3.28;;;18.30;99.90;;;;;;5033896;28;20382;-72
2022/08/05 02:08:18;;;;;;;4.40;3.03;;;18.30;99.90;;;;;;5033249;28;20048;-72
2022/08/05 02:10:50;;;;;;;4.60;3.28;;;18.30;99.90;;;;;;5033996;28;20045;-71
2022/08/05 02:13:29;;;;;;;5.28;3.05;;;18.30;99.90;;;;;;5033795;28;20060;-72
2022/08/05 02:16:04;;;;;;;4.18;3.00;;;18.30;99.90;;;;;;5033796;28;20060;-71
2022/08/05 02:18:39;;;;;;;5.45;3.50;;;18.20;99.90;;;;;;5033117;28;20049;-71
2022/08/05 02:21:30;;;;;;;3.97;2.80;;;18.20;99.90;;;;;;5033405;28;20494;-71
2022/08/05 02:24:05;;;;;;;4.60;2.90;;;18.20;99.90;;;;;;5023725;28;20063;-71
2022/08/05 02:26:55;;;;;;;6.93;3.28;;;18.10;99.90;;;;;;5016144;28;20410;-72
2022/08/05 02:29:24;;;;;;;5.60;3.53;;;18.10;99.90;;;;;;5015554;28;20045;-72
2022/08/05 02:31:56;;;;;;;5.80;3.20;;;18.00;99.90;;;;;;5033095;28;20045;-71
2022/08/05 02:34:25;;;;;;;4.75;3.15;;;18.10;99.90;;;;;;5015894;28;20053;-72
2022/08/05 02:36:54;;;;;;;6.10;3.30;;;18.10;99.90;;;;;;5034242;28;20531;-72
2022/08/05 02:39:21;;;;;;;4.45;3.00;;;18.10;99.90;;;;;;5036903;28;20128;-72
2022/08/05 02:41:49;;;;;;;4.43;3.17;;;18.10;99.90;;;;;;5037122;28;20409;-72
2022/08/05 02:44:16;;;;;;;4.55;3.40;;;18.10;99.90;;;;;;5019166;28;20084;-72
2022/08/05 02:46:45;;;;;;;3.90;3.08;;;18.10;99.90;;;;;;5036868;28;20052;-72
2022/08/05 02:49:14;;;;;;;5.70;3.65;;;18.00;99.90;;;;;;5036988;28;20045;-72
2022/08/05 02:51:41;;;;;;;5.47;3.80;;;18.00;99.90;;;;;;5036417;28;20563;-72
2022/08/05 02:54:09;;;;;;;4.93;3.17;;;18.00;99.90;;;;;;5019452;28;20061;-72
2022/08/05 02:56:35;;;;;;;5.90;3.05;;;18.00;99.90;;;;;;5037188;28;20085;-72
2022/08/05 02:59:03;;;;;;;4.93;3.17;;;18.00;99.90;;;;;;5036401;28;20041;-72
2022/08/05 03:01:30;;;;;;;6.40;3.78;;;18.00;99.90;;;;;;5018775;28;20084;-72
2022/08/05 03:04:00;;;;;;;4.57;3.47;;;18.00;99.90;;;;;;5019019;28;20056;-72
2022/08/05 03:06:26;;;;;;;5.28;3.58;;;18.00;99.90;;;;;;5036767;28;20486;-72
2022/08/05 03:08:53;;;;;;;7.32;3.90;;;18.00;99.90;;;;;;5036393;28;20041;-71
2022/08/05 03:11:25;;;;;;;4.55;3.05;;;18.00;99.90;;;;;;5036185;28;20483;-72
2022/08/05 03:13:52;;;;;;;5.20;3.22;;;18.00;99.90;;;;;;5019648;28;20506;-71
2022/08/05 03:16:19;;;;;;;5.07;3.40;;;17.90;99.90;;;;;;5035939;28;20510;-71
2022/08/05 03:18:45;;;;;;;4.53;3.30;;;17.90;99.90;;;;;;5036154;28;20052;-71
2022/08/05 03:21:11;;;;;;;5.07;3.08;;;17.80;99.90;;;;;;5036130;28;20128;-71
2022/08/05 03:23:41;;;;;;;7.10;3.28;;;17.70;99.90;;;;;;5036104;28;20045;-71
2022/08/05 03:26:07;;;;;;;4.25;3.10;;;17.70;99.90;;;;;;5035968;28;20049;-71
2022/08/05 03:28:33;;;;;;;4.88;3.42;;;17.70;99.90;;;;;;5018182;28;20045;-72
2022/08/05 03:31:01;;;;;;;5.30;3.05;;;17.60;99.90;;;;;;5018066;28;20056;-72
2022/08/05 03:33:27;;;;;;;4.65;3.50;;;17.60;99.90;;;;;;5035796;28;20088;-72
2022/08/05 03:35:55;;;;;;;4.40;3.22;;;17.70;99.90;;;;;;5035789;28;20056;-72
2022/08/05 03:38:22;;;;;;;3.67;2.90;;;17.70;99.90;;;;;;5018883;28;20053;-73
2022/08/05 03:40:48;;;;;;;5.40;3.30;;;17.70;99.90;;;;;;5018331;28;20050;-72
2022/08/05 03:43:14;;;;;;;4.68;3.20;;;17.60;99.90;;;;;;5018999;28;20098;-73
2022/08/05 03:45:40;;;;;;;4.55;3.30;;;17.70;99.90;;;;;;5035733;28;20052;-70
2022/08/05 03:48:06;;;;;;;5.35;3.50;;;17.70;99.90;;;;;;5034859;28;20038;-70
2022/08/05 03:50:42;;;;;;;4.95;3.53;;;17.70;99.90;;;;;;5035642;28;20049;-70
2022/08/05 03:53:12;;;;;;;4.07;3.15;;;17.70;99.90;;;;;;5035656;28;20058;-70
2022/08/05 03:55:44;;;;;;;5.25;2.90;;;17.70;99.90;;;;;;5035489;28;20046;-70
2022/08/05 03:58:15;;;;;;;6.13;3.50;;;17.70;99.90;;;;;;5035991;28;20050;-70
2022/08/05 04:00:43;;;;;;;4.47;3.50;;;17.70;99.90;;;;;;5035380;28;20049;-70
2022/08/05 04:03:12;;;;;;;3.75;2.83;;;17.70;99.90;;;;;;5035690;28;20056;-70
2022/08/05 04:05:39;;;;;;;6.45;3.33;;;17.70;99.90;;;;;;5035361;28;20050;-70
2022/08/05 04:08:09;;;;;;;4.50;3.35;;;17.70;99.90;;;;;;5035253;28;20052;-70
2022/08/05 04:10:36;;;;;;;4.25;3.22;;;17.70;99.90;;;;;;5035681;28;20046;-70
2022/08/05 04:13:02;;;;;;;5.68;3.30;;;17.70;99.90;;;;;;5017242;28;20080;-70
2022/08/05 04:15:28;;;;;;;4.80;3.10;;;17.70;99.90;;;;;;5034743;28;20046;-70
2022/08/05 04:17:54;;;;;;;5.28;3.38;;;17.70;99.90;;;;;;5017787;28;20044;-70
2022/08/05 04:20:22;;;;;;;6.03;3.58;;;17.70;99.90;;;;;;5017425;28;20037;-71
2022/08/05 04:22:48;;;;;;;4.50;3.17;;;17.70;99.90;;;;;;5034937;28;20107;-71
2022/08/05 04:25:14;;;;;;;5.55;3.45;;;17.80;99.90;;;;;;5017399;28;20077;-70
2022/08/05 04:27:40;;;;;;;5.65;3.25;;;17.80;99.90;;;;;;5035556;28;20053;-70
2022/08/05 04:30:07;;;;;;;5.82;3.20;;;17.80;99.90;;;;;;5034587;28;20045;-71
2022/08/05 04:32:33;;;;;;;4.88;2.90;;;17.80;99.90;;;;;;5017651;28;20099;-70
2022/08/05 04:34:58;;;;;;;5.00;3.10;;;17.80;99.90;;;;;;5035167;28;20042;-70
2022/08/05 04:37:24;;;;;;;6.05;3.40;;;17.90;99.90;;;;;;5034865;28;20044;-70
2022/08/05 04:39:50;;;;;;;7.28;3.63;;;17.90;99.90;;;;;;5035735;28;20050;-70
2022/08/05 04:42:15;;;;;;;6.28;3.72;;;17.90;99.90;;;;;;5017747;28;20045;-70
2022/08/05 04:44:41;;;;;;;4.45;3.25;;;17.90;99.90;;;;;;5034590;28;20390;-70
2022/08/05 04:47:07;;;;;;;7.03;3.00;;;17.90;99.90;;;;;;5000748;28;20057;-70
2022/08/05 04:49:33;;;;;;;5.03;2.83;;;17.90;99.90;;;;;;5016908;28;20049;-70
2022/08/05 04:51:59;;;;;;;4.43;3.08;;;17.80;99.90;;;;;;5034993;28;20049;-70
2022/08/05 04:54:27;;;;;;;3.55;2.80;;;17.80;99.90;;;;;;5034927;28;20052;-70
2022/08/05 04:56:53;;;;;;;3.80;3.20;;;17.80;99.90;;;;;;5034356;28;20068;-71
2022/08/05 04:59:21;;;;;;;5.22;3.25;;;17.90;99.90;;;;;;5033717;28;20042;-71
2022/08/05 05:01:49;;;;;;;5.20;3.30;;;17.90;99.90;;;;;;5016336;28;20482;-70
2022/08/05 05:04:15;;;;;;;5.32;3.28;;;17.90;99.90;;;;;;5034156;28;20061;-70
2022/08/05 05:06:41;;;;;;;4.65;3.53;;;18.00;99.90;;;;;;5034223;28;20076;-70
2022/08/05 05:09:07;;;;;;;5.63;3.20;;;17.90;99.90;;;;;;5034123;28;20172;-70
2022/08/05 05:11:32;;;;;;;5.88;3.10;;;18.00;99.90;;;;;;5034091;28;20048;-70
2022/08/05 05:13:58;;;;;;;4.22;3.20;;;17.90;99.90;;;;;;5033972;28;20060;-70
2022/08/05 05:16:24;;;;;;;5.20;3.22;;;17.90;99.90;;;;;;5034438;28;20049;-70
2022/08/05 05:18:49;;;;;;;5.43;3.15;;;18.00;99.90;;;;;;5016133;28;20045;-70
2022/08/05 05:21:15;;;;;;;5.25;3.55;;;18.00;99.90;;;;;;5034695;28;20050;-70
2022/08/05 05:23:41;;;;;;;4.68;3.17;;;18.00;99.90;;;;;;5034672;28;20045;-70
2022/08/05 05:26:06;;;;;;;4.75;2.85;;;18.00;99.90;;;;;;5034148;28;20046;-70
2022/08/05 05:28:32;;;;;;;4.93;3.13;;;18.00;99.90;;;;;;5032519;28;20068;-70
2022/08/05 05:30:58;;;;;;;3.35;3.00;;;18.00;99.90;;;;;;5033898;28;20084;-70
2022/08/05 05:33:24;;;;;;;4.30;2.78;;;18.00;99.90;;;;;;4999757;28;20389;-71
2022/08/05 05:35:50;;;;;;;4.28;3.10;;;18.00;99.90;;;;;;5016207;28;20041;-70
2022/08/05 05:38:16;;;;;;;5.00;3.17;;;18.00;99.90;;;;;;5033461;28;20132;-71
2022/08/05 05:40:43;;;;;;;4.88;2.92;;;18.10;99.90;;;;;;5033532;28;20053;-71
2022/08/05 05:43:08;;;;;;;4.93;2.60;;;18.10;99.90;;;;;;5034048;28;20053;-71
2022/08/05 05:45:34;;;;;;;4.80;2.72;;;18.10;99.90;;;;;;5033535;28;20420;-70
2022/08/05 05:48:00;;;;;;;3.13;2.45;;;18.10;99.90;;;;;;5016410;28;20157;-70
2022/08/05 05:50:26;;;;;;;3.70;2.63;;;18.10;99.90;;;;;;5016825;28;20041;-70
2022/08/05 05:52:53;;;;;;;4.50;2.72;;;18.10;99.90;;;;;;5015886;28;20104;-70
2022/08/05 05:55:19;;;;;;;4.30;2.53;;;18.10;99.90;;;;;;5033436;28;20187;-70
2022/08/05 05:57:46;;;;;;;3.65;2.40;;;18.10;99.90;;;;;;5015825;28;20552;-71
2022/08/05 06:00:18;;;;;;;4.00;2.45;;;18.10;99.90;;;;;;5033234;28;20045;-71
2022/08/05 06:02:46;;;;;;;4.38;2.75;;;18.20;99.90;;;;;;5016627;28;20048;-71
2022/08/05 06:05:13;;;;;;;4.22;2.45;;;18.10;99.90;;;;;;5016508;28;20466;-71
2022/08/05 06:07:39;;;;;;;3.25;2.30;;;18.20;99.90;;;;;;5016591;28;20170;-63
2022/08/05 06:10:06;;;;;;;4.28;2.58;;;18.20;99.90;;;;;;5033170;28;20045;-64
2022/08/05 06:12:33;;;;;;;3.58;2.38;;;18.20;99.90;;;;;;5033261;28;20350;-64
2022/08/05 06:15:01;;;;;;;3.53;2.33;;;18.20;99.90;;;;;;5033161;28;20041;-64
2022/08/05 06:17:27;;;;;;;3.83;2.58;;;18.20;99.90;;;;;;5033053;28;20476;-64
2022/08/05 06:19:52;;;;;;;4.38;2.20;;;18.20;99.90;;;;;;5033577;28;20038;-64
2022/08/05 06:22:23;;;;;;;3.70;2.50;;;18.20;99.90;;;;;;5032710;28;20041;-64
2022/08/05 06:24:49;;;;;;;3.80;2.60;;;18.20;99.90;;;;;;5033060;28;20042;-64
2022/08/05 06:27:15;;;;;;;4.03;2.40;;;18.20;99.90;;;;;;5016042;28;20053;-64
2022/08/05 06:29:40;;;;;;;3.28;2.38;;;18.20;99.90;;;;;;5015868;28;20122;-64
2022/08/05 06:32:07;;;;;;;3.67;2.30;;;18.20;99.90;;;;;;5032988;28;20046;-64
2022/08/05 06:34:32;;;;;;;3.88;2.20;;;18.30;99.90;;;;;;5016258;28;20451;-64
2022/08/05 06:36:58;;;;;;;4.70;2.65;;;18.40;99.90;;;;;;5033411;28;20128;-64
2022/08/05 06:39:25;;;;;;;3.15;2.25;;;18.40;99.90;;;;;;5033179;28;20346;-64
2022/08/05 06:41:50;;;;;;;2.60;2.10;;;18.40;99.90;;;;;;5032913;28;20056;-64
2022/08/05 06:44:16;;;;;;;3.88;2.30;;;18.40;99.90;;;;;;5032943;28;20049;-64
2022/08/05 06:46:42;;;;;;;3.42;2.15;;;18.40;99.90;;;;;;5032911;28;20053;-64
2022/08/05 06:49:07;;;;;;;3.45;2.17;;;18.50;99.90;;;;;;5015708;28;20097;-64
2022/08/05 06:51:33;;;;;;;4.65;2.40;;;18.50;99.90;;;;;;5032838;28;20041;-64
2022/08/05 06:54:00;;;;;;;3.13;2.15;;;18.50;99.90;;;;;;5016133;28;20037;-64
2022/08/05 06:56:27;;;;;;;3.35;2.30;;;18.50;99.90;;;;;;5032843;28;20077;-64
2022/08/05 06:58:54;;;;;;;2.78;2.10;;;18.60;99.90;;;;;;5032613;28;20412;-64
2022/08/05 07:01:19;;;;;;;3.83;2.53;;;18.60;99.90;;;;;;5032728;28;20128;-64
2022/08/05 07:03:45;;;;;;;6.18;2.20;;;18.60;99.90;;;;;;5032649;28;20466;-64
2022/08/05 07:06:11;;;;;;;4.15;2.03;;;18.60;99.90;;;;;;5032607;28;20053;-64
2022/08/05 07:08:36;;;;;;;3.38;1.85;;;18.70;99.90;;;;;;5033342;28;20045;-64
2022/08/05 07:11:03;;;;;;;3.28;2.13;;;18.70;99.90;;;;;;5032643;28;20050;-64
2022/08/05 07:18:58;;;;;;;3.15;1.83;;;18.70;99.90;;;;;;5032792;28;20060;-64
2022/08/05 07:21:23;;;;;;;3.75;1.50;;;18.80;99.90;;;;;;5032192;28;20045;-64
2022/08/05 07:23:49;;;;;;;2.90;1.90;;;18.80;99.90;;;;;;5033827;28;20053;-64
2022/08/05 07:26:15;;;;;;;2.38;1.40;;;18.80;99.90;;;;;;5018059;28;20068;-64
2022/08/05 07:28:40;;;;;;;2.78;1.83;;;18.90;99.90;;;;;;5035843;28;20080;-64
2022/08/05 07:31:07;;;;;;;4.13;1.75;;;18.90;99.90;;;;;;5035608;28;20128;-64
2022/08/05 07:33:33;;;;;;;3.85;1.70;;;18.90;99.90;;;;;;5035798;28;20375;-65
2022/08/05 07:35:58;;;;;;;2.47;1.77;;;19.00;99.90;;;;;;5035975;28;20100;-64
2022/08/05 07:38:25;;;;;;;2.72;2.13;;;19.00;99.90;;;;;;5036099;28;20493;-64
2022/08/05 07:40:50;;;;;;;2.20;1.60;;;19.00;99.90;;;;;;5036120;28;20376;-64
2022/08/05 07:43:16;;;;;;;3.42;1.70;;;19.10;99.90;;;;;;5036169;28;20056;-64
2022/08/05 07:45:43;;;;;;;3.30;1.83;;;19.10;99.90;;;;;;5018051;28;20041;-64
2022/08/05 07:48:09;;;;;;;3.05;1.63;;;19.10;99.90;;;;;;5035962;28;20045;-64
2022/08/05 07:50:35;;;;;;;4.03;1.40;;;19.20;99.90;;;;;;5035502;28;20041;-66
2022/08/05 07:53:01;;;;;;;3.00;1.50;;;19.30;99.90;;;;;;5035503;28;20056;-64
2022/08/05 07:55:27;;;;;;;2.33;1.67;;;19.40;99.90;;;;;;5035427;28;20045;-65
2022/08/05 07:57:52;;;;;;;6.15;1.67;;;19.50;99.90;;;;;;5035596;28;20130;-64
2022/08/05 08:00:18;;;;;;;2.50;1.63;;;19.60;99.90;;;;;;5035953;28;20057;-64
2022/08/05 08:02:44;;;;;;;2.75;1.50;;;19.60;99.90;;;;;;5035755;28;20382;-64
2022/08/05 08:05:10;;;;;;;2.58;1.60;;;19.50;99.90;;;;;;5035199;28;20049;-64
2022/08/05 08:07:36;;;;;;;2.33;1.30;;;19.50;99.90;;;;;;5017443;28;20050;-64
2022/08/05 08:10:02;;;;;;;2.20;1.45;;;19.50;99.90;;;;;;5017563;28;20072;-64
2022/08/05 08:12:28;;;;;;;2.35;1.35;;;19.60;99.90;;;;;;5017683;28;20151;-64
2022/08/05 08:14:54;;;;;;;2.55;1.30;;;19.70;99.90;;;;;;5035474;28;20525;-64
2022/08/05 08:17:20;;;;;;;3.40;1.35;;;19.70;99.90;;;;;;5034829;28;20437;-64
2022/08/05 08:19:46;;;;;;;3.28;1.33;;;19.70;99.90;;;;;;5035281;28;20132;-65
2022/08/05 08:22:12;;;;;;;1.92;1.20;;;19.80;99.90;;;;;;5035427;28;20154;-64
2022/08/05 08:24:37;;;;;;;2.90;1.20;;;19.80;99.90;;;;;;5034658;28;20524;-64
2022/08/05 08:27:04;;;;;;;2.38;1.50;;;19.90;99.90;;;;;;5034628;28;20093;-64
2022/08/05 08:29:31;;;;;;;3.53;1.30;;;19.90;99.90;;;;;;5034655;28;20053;-64
2022/08/05 08:31:56;;;;;;;2.15;1.05;;;19.90;99.90;;;;;;5035514;28;20049;-64
2022/08/05 08:34:24;;;;;;;2.35;1.35;;;20.00;99.90;;;;;;5034288;28;20076;-64
2022/08/05 08:36:50;;;;;;;3.05;1.35;;;20.10;99.90;;;;;;5034570;28;20041;-64
2022/08/05 08:39:19;;;;;;;2.88;1.50;;;20.20;99.90;;;;;;5016606;28;20123;-64
2022/08/05 08:41:48;;;;;;;2.45;1.25;;;20.20;99.90;;;;;;5034392;28;20051;-64
2022/08/05 08:44:17;;;;;;;2.47;1.30;;;20.20;99.90;;;;;;5017537;28;20471;-64
2022/08/05 08:46:46;;;;;;;1.90;1.10;;;20.20;99.90;;;;;;5034380;28;20049;-64
2022/08/05 08:49:16;;;;;;;2.13;1.00;;;20.20;99.90;;;;;;5034386;28;20041;-64
2022/08/05 08:51:50;;;;;;;2.13;1.20;;;20.20;99.90;;;;;;5034391;28;20056;-64
2022/08/05 08:54:16;;;;;;;3.80;1.20;;;20.20;99.90;;;;;;5033418;28;20494;-65
2022/08/05 08:56:42;;;;;;;1.77;0.88;;;20.20;99.90;;;;;;5034170;28;20048;-64
2022/08/05 08:59:08;;;;;;;2.28;0.90;;;20.10;99.90;;;;;;5016190;28;20077;-64
2022/08/05 09:01:33;;;;;;;2.08;1.02;;;20.10;99.90;;;;;;5034014;28;20073;-64
2022/08/05 09:04:00;;;;;;;2.63;1.00;;;20.10;99.90;;;;;;5016691;28;20052;-64
2022/08/05 09:06:27;;;;;;;2.00;0.95;;;20.20;99.90;;;;;;5016454;28;20486;-64
2022/08/05 09:08:53;;;;;;;2.13;0.90;;;20.20;99.90;;;;;;5033965;28;20045;-63
2022/08/05 09:11:19;;;;;;;1.95;1.05;;;20.20;99.90;;;;;;5016257;28;20117;-64
2022/08/05 09:13:45;;;;;;;2.47;1.00;;;20.20;99.90;;;;;;5033927;28;20089;-63
2022/08/05 09:16:12;;;;;;;2.40;1.20;;;20.20;99.90;;;;;;5016661;28;20049;-64
2022/08/05 09:18:38;;;;;;;1.90;1.05;;;20.20;99.90;;;;;;5033864;28;20057;-64
2022/08/05 09:21:05;;;;;;;1.60;0.88;;;20.20;99.90;;;;;;5033798;28;20231;-64
2022/08/05 09:23:30;;;;;;;1.75;0.90;;;20.20;99.90;;;;;;5033638;28;20045;-64
2022/08/05 09:26:08;;;;;;;2.00;0.90;;;20.20;99.90;;;;;;5033659;28;20441;-64
2022/08/05 09:28:36;;;;;;;1.40;0.80;;;20.20;99.90;;;;;;5033675;28;20453;-65
2022/08/05 09:31:13;;;;;;;2.03;0.80;;;20.20;99.90;;;;;;5033536;28;20042;-64
2022/08/05 09:33:55;;;;;;;1.98;1.00;;;20.30;99.90;;;;;;5015526;28;20045;-64
2022/08/05 09:36:21;;;;;;;1.90;0.75;;;20.30;99.90;;;;;;5033530;28;20055;-64
2022/08/05 09:39:02;;;;;;;1.42;0.70;;;20.30;99.90;;;;;;5033346;28;20056;-64
2022/08/05 09:41:28;;;;;;;1.40;0.73;;;20.30;99.90;;;;;;5034014;28;20376;-64
2022/08/05 09:43:54;;;;;;;2.20;1.00;;;20.30;99.90;;;;;;5033293;28;20139;-64
2022/08/05 09:46:26;;;;;;;1.92;0.70;;;20.40;99.90;;;;;;5032349;28;20061;-65
2022/08/05 09:48:53;;;;;;;2.92;0.73;;;20.40;99.90;;;;;;5033314;28;20038;-64
2022/08/05 09:51:31;;;;;;;2.67;0.70;;;20.50;99.90;;;;;;5033177;28;20450;-64
2022/08/05 09:53:57;;;;;;;1.42;0.65;;;20.60;99.90;;;;;;5034055;28;20083;-64
2022/08/05 09:56:34;;;;;;;2.35;0.60;;;20.60;99.90;;;;;;5033163;28;20095;-64
2022/08/05 09:59:04;;;;;;;1.60;0.90;;;20.70;99.90;;;;;;5033185;28;20041;-64
2022/08/05 10:01:40;;;;;;;2.50;1.00;;;20.70;99.90;;;;;;5033359;28;20482;-64
2022/08/05 10:04:13;;;;;;;2.40;0.90;;;20.70;99.90;;;;;;5033734;28;20475;-64
2022/08/05 10:06:41;;;;;;;1.90;0.70;;;20.70;99.90;;;;;;5033898;28;20080;-64
2022/08/05 10:09:11;;;;;;;0.98;0.60;;;20.70;99.90;;;;;;5033199;28;20084;-64
2022/08/05 10:11:37;;;;;;;1.42;0.77;;;20.70;99.90;;;;;;5033064;28;20080;-65
2022/08/05 10:14:24;;;;;;;1.58;0.77;;;20.90;99.90;;;;;;5015392;28;20049;-64
2022/08/05 10:16:51;;;;;;;3.33;0.80;;;21.00;99.90;;;;;;5033274;28;20529;-64
2022/08/05 10:19:17;;;;;;;1.48;0.70;;;21.00;99.90;;;;;;5015213;28;20065;-64
2022/08/05 10:21:44;;;;;;;1.02;0.57;;;21.10;99.90;;;;;;5016021;28;20136;-64
2022/08/05 10:24:14;;;;;;;1.35;0.50;;;21.10;99.90;;;;;;5016325;28;20367;-64
2022/08/05 10:26:42;;;;;;;1.55;0.60;;;21.10;99.90;;;;;;5033302;28;20243;-64
2022/08/05 10:29:08;;;;;;;1.63;0.60;;;21.30;99.90;;;;;;5033358;28;20068;-65
2022/08/05 10:31:35;;;;;;;0.98;0.60;;;21.50;99.90;;;;;;5033389;28;20504;-65
2022/08/05 10:34:01;;;;;;;2.38;0.50;;;21.80;99.90;;;;;;5032932;28;20132;-65
2022/08/05 10:36:27;;;;;;;1.60;0.60;;;22.00;99.90;;;;;;5033365;28;20053;-65
2022/08/05 10:39:01;;;;;;;1.60;0.60;;;22.00;99.90;;;;;;5033081;28;20115;-66
2022/08/05 10:41:32;;;;;;;1.05;0.40;;;21.80;99.90;;;;;;5033637;28;20133;-65
2022/08/05 10:44:04;;;;;;;1.65;0.52;;;21.60;99.90;;;;;;5032762;28;20483;-65
2022/08/05 10:47:10;;;;;;;1.73;0.50;;;21.50;99.90;;;;;;5016110;28;20132;-66
2022/08/05 10:50:11;;;;;;;1.13;0.50;;;21.60;99.90;;;;;;4992793;28;20057;-66
2022/08/05 10:52:51;;;;;;;0.93;0.40;;;21.70;99.90;;;;;;5033282;28;20049;-66
2022/08/05 10:55:17;;;;;;;1.75;0.60;;;21.70;99.90;;;;;;5032808;28;20045;-66
2022/08/05 10:57:44;;;;;;;1.17;0.43;;;21.80;99.90;;;;;;5034058;28;20148;-66
2022/08/05 11:00:17;;;;;;;2.33;0.73;;;22.00;99.90;;;;;;5036427;28;20057;-65
2022/08/05 11:03:04;;;;;;;0.80;0.40;;;22.20;99.90;;;;;;5036758;28;20045;-66
2022/08/05 11:05:31;;;;;;;1.00;0.60;;;22.30;99.90;;;;;;5036393;28;20092;-66
2022/08/05 11:08:05;;;;;;;1.10;0.50;;;22.40;99.90;;;;;;5036387;28;20057;-65
2022/08/05 11:10:33;;;;;;;1.10;0.40;;;22.40;99.90;;;;;;5036417;28;20129;-65
2022/08/05 11:12:59;;;;;;;1.65;0.50;;;22.50;99.90;;;;;;5036265;28;20049;-65
2022/08/05 11:15:29;;;;;;;2.58;0.60;;;22.50;99.90;;;;;;5036082;28;20047;-65
2022/08/05 11:18:13;;;;;;;1.00;0.40;;;22.60;99.90;;;;;;5018337;28;20533;-65
2022/08/05 11:20:45;;;;;;;1.10;0.38;;;22.70;99.90;;;;;;5036037;28;20114;-66
2022/08/05 11:23:30;;;;;;;0.63;0.35;;;22.70;99.90;;;;;;5036343;28;20395;-66
2022/08/05 11:26:20;;;;;;;3.10;0.50;;;22.60;99.90;;;;;;5036472;28;20152;-65
2022/08/05 11:28:51;;;;;;;1.60;0.52;;;22.60;99.90;;;;;;5035631;28;20057;-65
2022/08/05 11:31:17;;;;;;;0.32;0.30;;;22.60;99.90;;;;;;5036347;28;20053;-66
2022/08/05 11:33:46;;;;;;;1.00;0.50;;;22.70;99.90;;;;;;5035414;28;20045;-65
2022/08/05 11:36:17;;;;;;;1.65;0.30;;;22.60;99.90;;;;;;5035926;28;20150;-65
2022/08/05 11:38:43;;;;;;;1.48;0.40;;;22.60;99.90;;;;;;5036289;28;20442;-67
2022/08/05 11:41:30;;;;;;;0.57;0.30;;;22.70;99.90;;;;;;5018169;28;20085;-66
2022/08/05 11:44:11;;;;;;;0.80;0.43;;;22.70;99.90;;;;;;5035873;28;20057;-65
2022/08/05 11:46:50;;;;;;;0.70;0.30;;;22.70;97.30;;;;;;5035293;28;20545;-65
2022/08/05 11:49:21;;;;;;;0.95;0.65;;;22.60;98.50;;;;;;5035941;28;20045;-65
2022/08/05 11:51:52;;;;;;;1.67;0.30;;;22.60;98.20;;;;;;5035410;28;20049;-66
2022/08/05 11:54:26;;;;;;;1.52;0.30;;;22.60;97.70;;;;;;5035397;28;20041;-66
2022/08/05 11:56:54;;;;;;;0.60;0.30;;;22.70;97.00;;;;;;5035996;28;20041;-65
2022/08/05 11:59:25;;;;;;;1.85;0.30;;;22.70;97.10;;;;;;5035140;28;20064;-64
2022/08/05 12:01:56;;;;;;;0.40;0.20;;;22.80;93.80;;;;;;5017798;28;20052;-65
2022/08/05 12:04:23;;;;;;;1.83;0.38;;;22.90;94.90;;;;;;5035179;28;20082;-65
2022/08/05 12:06:49;;;;;;;0.70;0.30;;;22.80;94.90;;;;;;5034838;28;20612;-65
2022/08/05 12:09:19;;;;;;;1.90;0.40;;;22.80;94.40;;;;;;5034263;28;20041;-65
2022/08/05 12:11:45;;;;;;;1.02;0.30;;;22.60;94.20;;;;;;5034881;28;20041;-65
2022/08/05 12:14:12;;;;;;;1.73;0.30;;;22.60;94.00;;;;;;5034888;28;20060;-64
2022/08/05 12:16:42;;;;;;;1.20;0.50;;;22.70;93.30;;;;;;5034580;28;20047;-65
2022/08/05 12:19:10;;;;;;;0.90;0.40;;;22.60;92.70;;;;;;5034746;28;20045;-64
2022/08/05 12:21:56;;;;;;;0.40;0.20;;;22.50;92.80;;;;;;5034786;28;20441;-65
2022/08/05 12:24:22;;;;;;;0.70;0.40;;;22.30;92.60;;;;;;5034737;28;20144;-65
2022/08/05 12:26:50;;;;;;;0.55;0.30;;;22.20;94.00;;;;;;5034636;28;20144;-64
2022/08/05 12:29:23;;;;;;;2.10;0.50;;;22.20;94.40;;;;;;5034515;28;20073;-65
2022/08/05 12:31:49;;;;;;;0.90;0.30;;;22.20;93.60;;;;;;5034859;28;20427;-65
2022/08/05 12:34:16;;;;;;;0.40;0.30;;;22.20;94.30;;;;;;5034538;28;20092;-65
2022/08/05 12:36:44;;;;;;;1.17;0.40;;;22.30;94.80;;;;;;5034938;28;20447;-65
2022/08/05 12:39:10;;;;;;;1.42;0.30;;;22.40;95.10;;;;;;5034416;28;20060;-65
2022/08/05 12:41:37;;;;;;;0.65;0.30;;;22.40;94.90;;;;;;5034576;28;20136;-65
2022/08/05 12:44:09;;;;;;;1.00;0.40;;;22.50;95.00;;;;;;5034373;28;20050;-65
2022/08/05 12:46:37;;;;;;;0.90;0.35;;;22.50;94.60;;;;;;5034338;28;20049;-65
2022/08/05 12:49:13;;;;;;;0.45;0.30;;;22.40;95.00;;;;;;5034265;28;20069;-64
2022/08/05 12:51:58;;;;;;;0.90;0.30;;;22.40;94.50;;;;;;5034843;28;20041;-65
2022/08/05 12:54:29;;;;;;;2.58;0.40;;;22.40;94.80;;;;;;5034543;28;20093;-64
2022/08/05 12:57:04;;;;;;;0.50;0.30;;;22.50;95.20;;;;;;5016394;28;20049;-65
2022/08/05 12:59:42;;;;;;;2.05;0.43;;;22.40;95.40;;;;;;5033924;28;20464;-65
2022/08/05 13:02:09;;;;;;;0.95;0.50;;;22.30;95.60;;;;;;5034054;28;20103;-65